createdAt,value
2023-01-17T00:00:33.118Z,97111.28
2023-01-17T00:01:34.945Z,97103.59
2023-01-17T00:02:37.914Z,97098.66
2023-01-17T00:03:54.569Z,97121.75
2023-01-17T00:05:14.748Z,97114.91
2023-01-17T00:06:36.293Z,97117.66
2023-01-17T00:07:56.614Z,97121.75
2023-01-17T00:09:16.880Z,97122.47
2023-01-17T00:10:21.048Z,97123.28
2023-01-17T00:11:22.711Z,97124.13
2023-01-17T00:12:27.068Z,97123.75
2023-01-17T00:13:29.758Z,97115.88
2023-01-17T00:14:31.501Z,97118.59
2023-01-17T00:15:34.370Z,97134.88
2023-01-17T00:16:36.058Z,97128.22
2023-01-17T00:17:38.736Z,97133.91
2023-01-17T00:19:00.428Z,97129.31
2023-01-17T00:20:21.420Z,97123.06
2023-01-17T00:21:42.176Z,97130.94
2023-01-17T00:23:03.012Z,97134.00
2023-01-17T00:24:23.812Z,97138.81
2023-01-17T00:25:45.784Z,97127.19
2023-01-17T00:27:02.395Z,97134.03
2023-01-17T00:28:04.650Z,97148.63
2023-01-17T00:29:06.169Z,97142.50
2023-01-17T00:30:09.025Z,97146.59
2023-01-17T00:31:12.443Z,97146.97
2023-01-17T00:32:14.048Z,97149.69
2023-01-17T00:33:15.617Z,97140.72
2023-01-17T00:34:17.145Z,97158.19
2023-01-17T00:35:18.855Z,97158.88
2023-01-17T00:36:20.636Z,97142.63
2023-01-17T00:37:23.605Z,97156.91
2023-01-17T00:38:26.454Z,97151.00
2023-01-17T00:39:28.034Z,97183.06
2023-01-17T00:40:29.613Z,97152.50
2023-01-17T00:41:31.173Z,97163.00
2023-01-17T00:42:32.715Z,97157.56
2023-01-17T00:43:53.306Z,97185.38
2023-01-17T00:45:13.741Z,97161.00
2023-01-17T00:46:34.155Z,97166.88
2023-01-17T00:47:56.871Z,97164.75
2023-01-17T00:49:17.200Z,97155.66
2023-01-17T00:50:37.513Z,97163.91
2023-01-17T00:51:57.768Z,97175.97
2023-01-17T00:53:23.465Z,97170.56
2023-01-17T00:54:43.797Z,97173.97
2023-01-17T00:56:04.113Z,97171.00
2023-01-17T00:57:24.962Z,97177.84
2023-01-17T00:58:45.367Z,97177.72
2023-01-17T01:00:05.780Z,97186.81
2023-01-17T01:01:26.369Z,97203.25
2023-01-17T01:02:47.179Z,97191.63
2023-01-17T01:04:07.654Z,97199.28
2023-01-17T01:05:27.884Z,97194.41
2023-01-17T01:06:48.131Z,97197.34
2023-01-17T01:08:08.419Z,97196.56
2023-01-17T01:09:30.242Z,97210.00
2023-01-17T01:10:51.556Z,97215.41
2023-01-17T01:12:11.901Z,97214.22
2023-01-17T01:13:32.266Z,97216.69
2023-01-17T01:14:52.692Z,97217.50
2023-01-17T01:16:12.945Z,97218.13
2023-01-17T01:17:33.273Z,97218.31
2023-01-17T01:18:53.614Z,97236.31
2023-01-17T01:20:14.022Z,97224.19
2023-01-17T01:21:34.084Z,97221.88
2023-01-17T01:22:54.454Z,97241.13
2023-01-17T01:24:14.827Z,97236.72
2023-01-17T01:25:36.212Z,97238.97
2023-01-17T01:26:56.604Z,97234.72
2023-01-17T01:28:21.944Z,97243.59
2023-01-17T01:29:42.253Z,97240.28
2023-01-17T01:31:02.658Z,97237.69
2023-01-17T01:32:23.172Z,97239.78
2023-01-17T01:33:24.702Z,97246.94
2023-01-17T01:34:27.374Z,97256.78
2023-01-17T01:35:29.170Z,97245.13
2023-01-17T01:36:31.843Z,97253.94
2023-01-17T01:37:33.504Z,97252.91
2023-01-17T01:38:36.208Z,97257.19
2023-01-17T01:39:37.891Z,97246.59
2023-01-17T01:40:46.849Z,97264.19
2023-01-17T01:41:48.613Z,97259.50
2023-01-17T01:42:52.709Z,97265.75
2023-01-17T01:43:56.265Z,97255.59
2023-01-17T01:44:57.986Z,97271.88
2023-01-17T01:46:00.906Z,97254.31
2023-01-17T01:47:02.804Z,97259.31
2023-01-17T01:48:08.304Z,97262.53
2023-01-17T01:49:16.704Z,97269.22
2023-01-17T01:50:21.689Z,97268.47
2023-01-17T01:51:26.032Z,97269.69
2023-01-17T01:52:31.232Z,97278.56
2023-01-17T01:53:34.931Z,97270.72
2023-01-17T01:54:40.465Z,97269.06
2023-01-17T01:55:45.455Z,97267.81
2023-01-17T01:56:49.104Z,97276.75
2023-01-17T01:57:52.935Z,97277.34
2023-01-17T01:58:56.128Z,97288.78
2023-01-17T02:00:00.117Z,97267.75
2023-01-17T02:01:03.088Z,97279.69
2023-01-17T02:02:05.018Z,97279.47
2023-01-17T02:03:10.432Z,97277.84
2023-01-17T02:04:12.678Z,97278.16
2023-01-17T02:05:16.265Z,97283.41
2023-01-17T02:06:37.271Z,97286.81
2023-01-17T02:07:41.696Z,97290.13
2023-01-17T02:08:44.936Z,97296.22
2023-01-17T02:09:46.634Z,97294.19
2023-01-17T02:10:51.477Z,97302.44
2023-01-17T02:11:53.324Z,97290.22
2023-01-17T02:12:56.194Z,97287.63
2023-01-17T02:13:57.955Z,97289.81
2023-01-17T02:15:01.184Z,97299.75
2023-01-17T02:16:11.380Z,97297.94
2023-01-17T02:17:21.869Z,97308.38
2023-01-17T02:18:30.272Z,97294.41
2023-01-17T02:19:50.969Z,97298.09
2023-01-17T02:21:13.441Z,97302.88
2023-01-17T02:22:35.432Z,97306.94
2023-01-17T02:24:11.778Z,97306.63
2023-01-17T02:25:25.988Z,97311.19
2023-01-17T02:26:54.157Z,97312.13
2023-01-17T02:28:10.313Z,97313.97
2023-01-17T02:29:42.757Z,97318.13
2023-01-17T02:30:49.475Z,97317.72
2023-01-17T02:31:54.892Z,97319.38
2023-01-17T02:33:19.869Z,97320.78
2023-01-17T02:34:25.160Z,97311.41
2023-01-17T02:35:34.752Z,97319.75
2023-01-17T02:36:39.546Z,97319.59
2023-01-17T02:37:48.390Z,97312.00
2023-01-17T02:38:53.670Z,97320.50
2023-01-17T02:39:59.745Z,97322.63
2023-01-17T02:41:05.537Z,97319.53
2023-01-17T02:42:11.146Z,97321.63
2023-01-17T02:43:17.236Z,97324.69
2023-01-17T02:44:20.596Z,97315.06
2023-01-17T02:45:23.347Z,97319.59
2023-01-17T02:46:27.390Z,97319.97
2023-01-17T02:47:31.417Z,97305.25
2023-01-17T02:48:36.135Z,97322.09
2023-01-17T02:49:37.918Z,97325.38
2023-01-17T02:50:53.248Z,97322.47
2023-01-17T02:52:05.749Z,97315.34
2023-01-17T02:53:18.802Z,97319.75
2023-01-17T02:54:37.174Z,97320.59
2023-01-17T02:55:48.939Z,97327.56
2023-01-17T02:56:59.596Z,97328.66
2023-01-17T02:58:16.810Z,97328.72
2023-01-17T02:59:32.082Z,97330.28
2023-01-17T03:00:41.318Z,97328.56
2023-01-17T03:01:51.723Z,97324.13
2023-01-17T03:02:58.894Z,97327.88
2023-01-17T03:04:04.142Z,97326.84
2023-01-17T03:05:10.319Z,97326.84
2023-01-17T03:06:15.936Z,97325.56
2023-01-17T03:07:19.852Z,97333.47
2023-01-17T03:08:22.613Z,97328.88
2023-01-17T03:09:25.459Z,97332.41
2023-01-17T03:10:28.452Z,97331.38
2023-01-17T03:11:30.177Z,97333.91
2023-01-17T03:12:34.977Z,97331.22
2023-01-17T03:13:37.030Z,97335.34
2023-01-17T03:14:39.807Z,97331.78
2023-01-17T03:15:41.526Z,97331.22
2023-01-17T03:16:44.406Z,97333.03
2023-01-17T03:17:50.926Z,97348.19
2023-01-17T03:18:54.063Z,97334.66
2023-01-17T03:19:55.831Z,97336.09
2023-01-17T03:20:58.622Z,97342.09
2023-01-17T03:22:00.271Z,97333.03
2023-01-17T03:23:03.153Z,97347.16
2023-01-17T03:24:05.425Z,97345.28
2023-01-17T03:25:08.696Z,97342.34
2023-01-17T03:26:10.385Z,97341.38
2023-01-17T03:27:13.018Z,97342.56
2023-01-17T03:28:14.715Z,97339.28
2023-01-17T03:29:17.517Z,97342.34
2023-01-17T03:30:21.743Z,97346.09
2023-01-17T03:31:24.467Z,97342.34
2023-01-17T03:32:26.159Z,97348.97
2023-01-17T03:33:30.257Z,97347.91
2023-01-17T03:34:31.967Z,97354.06
2023-01-17T03:35:34.693Z,97344.81
2023-01-17T03:36:36.352Z,97356.63
2023-01-17T03:37:39.066Z,97350.16
2023-01-17T03:38:41.781Z,97351.00
2023-01-17T03:39:43.484Z,97347.84
2023-01-17T03:40:46.174Z,97354.53
2023-01-17T03:41:47.881Z,97353.47
2023-01-17T03:42:50.550Z,97350.16
2023-01-17T03:43:52.331Z,97356.41
2023-01-17T03:44:55.027Z,97356.78
2023-01-17T03:46:03.193Z,97353.03
2023-01-17T03:47:05.005Z,97356.78
2023-01-17T03:48:07.809Z,97357.63
2023-01-17T03:49:11.230Z,97355.94
2023-01-17T03:50:14.106Z,97355.59
2023-01-17T03:51:16.316Z,97358.88
2023-01-17T03:52:19.113Z,97363.09
2023-01-17T03:53:20.852Z,97354.13
2023-01-17T03:54:23.548Z,97364.75
2023-01-17T03:55:25.222Z,97357.09
2023-01-17T03:56:27.885Z,97361.69
2023-01-17T03:57:29.573Z,97359.03
2023-01-17T03:58:32.257Z,97357.19
2023-01-17T03:59:34.024Z,97361.81
2023-01-17T04:00:36.954Z,97360.50
2023-01-17T04:01:38.869Z,97358.00
2023-01-17T04:02:41.658Z,97365.91
2023-01-17T04:03:43.361Z,97363.81
2023-01-17T04:04:47.389Z,97365.25
2023-01-17T04:05:49.045Z,97370.00
2023-01-17T04:06:51.880Z,97372.69
2023-01-17T04:07:53.593Z,97375.53
2023-01-17T04:08:56.379Z,97369.47
2023-01-17T04:09:58.098Z,97368.47
2023-01-17T04:11:03.074Z,97369.66
2023-01-17T04:12:04.976Z,97364.88
2023-01-17T04:13:07.649Z,97378.66
2023-01-17T04:14:09.395Z,97378.91
2023-01-17T04:15:12.719Z,97373.66
2023-01-17T04:16:16.655Z,97371.34
2023-01-17T04:17:26.128Z,97368.84
2023-01-17T04:18:27.883Z,97367.78
2023-01-17T04:19:31.387Z,97368.41
2023-01-17T04:20:36.648Z,97368.16
2023-01-17T04:21:39.316Z,97366.47
2023-01-17T04:22:41.014Z,97365.19
2023-01-17T04:23:43.925Z,97362.25
2023-01-17T04:24:45.649Z,97365.78
2023-01-17T04:25:48.443Z,97366.63
2023-01-17T04:26:50.493Z,97368.28
2023-01-17T04:27:53.260Z,97368.13
2023-01-17T04:28:55.031Z,97372.88
2023-01-17T04:29:57.816Z,97375.63
2023-01-17T04:30:59.971Z,97372.03
2023-01-17T04:32:02.736Z,97384.06
2023-01-17T04:33:04.598Z,97375.28
2023-01-17T04:34:07.347Z,97380.47
2023-01-17T04:35:09.591Z,97377.56
2023-01-17T04:36:13.656Z,97393.56
2023-01-17T04:37:16.341Z,97383.56
2023-01-17T04:38:18.060Z,97383.34
2023-01-17T04:39:20.697Z,97382.28
2023-01-17T04:40:22.519Z,97392.28
2023-01-17T04:41:25.316Z,97383.34
2023-01-17T04:42:27.115Z,97390.41
2023-01-17T04:43:29.816Z,97380.41
2023-01-17T04:44:31.517Z,97387.72
2023-01-17T04:45:34.172Z,97386.94
2023-01-17T04:46:35.808Z,97381.69
2023-01-17T04:47:38.452Z,97384.59
2023-01-17T04:48:40.143Z,97388.13
2023-01-17T04:49:44.108Z,97378.34
2023-01-17T04:50:45.973Z,97389.44
2023-01-17T04:51:50.032Z,97385.06
2023-01-17T04:52:51.673Z,97378.59
2023-01-17T04:53:54.331Z,97378.22
2023-01-17T04:54:56.078Z,97386.09
2023-01-17T04:55:58.778Z,97381.53
2023-01-17T04:57:00.484Z,97390.69
2023-01-17T04:58:03.144Z,97386.78
2023-01-17T04:59:05.037Z,97379.94
2023-01-17T05:00:11.745Z,97385.09
2023-01-17T05:01:13.637Z,97391.16
2023-01-17T05:02:16.396Z,97395.50
2023-01-17T05:03:18.133Z,97395.50
2023-01-17T05:04:20.819Z,97389.84
2023-01-17T05:05:22.641Z,97392.34
2023-01-17T05:06:25.371Z,97393.81
2023-01-17T05:07:28.416Z,97392.28
2023-01-17T05:08:31.135Z,97401.00
2023-01-17T05:09:32.972Z,97401.84
2023-01-17T05:10:35.664Z,97397.88
2023-01-17T05:11:37.338Z,97399.13
2023-01-17T05:12:39.980Z,97397.03
2023-01-17T05:13:42.718Z,97403.50
2023-01-17T05:14:44.399Z,97395.59
2023-01-17T05:15:47.246Z,97401.63
2023-01-17T05:16:49.036Z,97403.13
2023-01-17T05:17:52.372Z,97397.25
2023-01-17T05:18:54.230Z,97409.75
2023-01-17T05:19:56.936Z,97407.72
2023-01-17T05:21:01.675Z,97404.34
2023-01-17T05:22:15.090Z,97401.41
2023-01-17T05:23:18.276Z,97402.47
2023-01-17T05:24:21.006Z,97404.69
2023-01-17T05:25:23.526Z,97410.13
2023-01-17T05:26:26.319Z,97414.13
2023-01-17T05:27:28.059Z,97417.19
2023-01-17T05:28:30.761Z,97413.44
2023-01-17T05:29:32.433Z,97412.41
2023-01-17T05:30:35.210Z,97413.81
2023-01-17T05:31:36.983Z,97414.19
2023-01-17T05:32:39.610Z,97420.81
2023-01-17T05:33:41.296Z,97417.72
2023-01-17T05:34:43.969Z,97416.31
2023-01-17T05:35:45.677Z,97419.25
2023-01-17T05:36:48.377Z,97421.13
2023-01-17T05:37:50.609Z,97422.16
2023-01-17T05:38:54.678Z,97418.41
2023-01-17T05:39:56.366Z,97420.06
2023-01-17T05:41:00.478Z,97420.06
2023-01-17T05:42:02.139Z,97413.00
2023-01-17T05:43:05.040Z,97418.25
2023-01-17T05:44:06.881Z,97417.00
2023-01-17T05:45:12.446Z,97421.78
2023-01-17T05:46:16.111Z,97417.41
2023-01-17T05:47:17.924Z,97419.97
2023-01-17T05:48:20.630Z,97417.88
2023-01-17T05:49:22.379Z,97414.78
2023-01-17T05:50:27.219Z,97423.13
2023-01-17T05:51:30.428Z,97425.00
2023-01-17T05:52:32.190Z,97418.09
2023-01-17T05:53:35.173Z,97423.97
2023-01-17T05:54:38.326Z,97416.44
2023-01-17T05:55:41.832Z,97431.59
2023-01-17T05:56:43.567Z,97425.13
2023-01-17T05:57:46.851Z,97422.19
2023-01-17T05:58:48.708Z,97419.88
2023-01-17T05:59:51.401Z,97418.88
2023-01-17T06:00:53.599Z,97418.94
2023-01-17T06:01:56.376Z,97418.88
2023-01-17T06:02:59.193Z,97413.47
2023-01-17T06:04:01.957Z,97420.56
2023-01-17T06:05:04.101Z,97421.75
2023-01-17T06:06:07.142Z,97415.88
2023-01-17T06:07:08.935Z,97420.25
2023-01-17T06:08:11.966Z,97417.75
2023-01-17T06:09:13.801Z,97425.66
2023-01-17T06:10:19.818Z,97419.81
2023-01-17T06:11:21.566Z,97428.53
2023-01-17T06:12:24.266Z,97433.75
2023-01-17T06:13:27.008Z,97424.63
2023-01-17T06:14:28.702Z,97434.41
2023-01-17T06:15:31.647Z,97430.63
2023-01-17T06:16:33.300Z,97430.22
2023-01-17T06:17:36.287Z,97433.34
2023-01-17T06:18:38.037Z,97430.22
2023-01-17T06:19:40.746Z,97425.84
2023-01-17T06:20:42.892Z,97427.09
2023-01-17T06:21:45.577Z,97430.22
2023-01-17T06:22:47.280Z,97429.38
2023-01-17T06:23:50.041Z,97425.22
2023-01-17T06:24:51.689Z,97425.84
2023-01-17T06:25:55.712Z,97415.47
2023-01-17T06:26:57.482Z,97420.03
2023-01-17T06:28:00.275Z,97428.53
2023-01-17T06:29:02.977Z,97434.84
2023-01-17T06:30:05.803Z,97435.69
2023-01-17T06:31:08.994Z,97424.00
2023-01-17T06:32:10.924Z,97430.03
2023-01-17T06:33:14.065Z,97427.34
2023-01-17T06:34:15.821Z,97432.50
2023-01-17T06:35:18.594Z,97426.56
2023-01-17T06:36:21.279Z,97427.38
2023-01-17T06:37:23.187Z,97436.28
2023-01-17T06:38:27.208Z,97430.63
2023-01-17T06:39:28.872Z,97430.63
2023-01-17T06:40:31.546Z,97432.91
2023-01-17T06:41:34.600Z,97429.00
2023-01-17T06:42:37.237Z,97426.66
2023-01-17T06:43:38.932Z,97437.72
2023-01-17T06:44:41.619Z,97419.59
2023-01-17T06:45:43.321Z,97429.25
2023-01-17T06:46:47.623Z,97428.59
2023-01-17T06:47:49.323Z,97426.28
2023-01-17T06:48:52.001Z,97428.75
2023-01-17T06:49:53.681Z,97425.22
2023-01-17T06:50:58.421Z,97423.75
2023-01-17T06:52:01.136Z,97425.16
2023-01-17T06:53:04.947Z,97426.22
2023-01-17T06:54:07.909Z,97430.59
2023-01-17T06:55:10.484Z,97438.25
2023-01-17T06:56:13.142Z,97430.97
2023-01-17T06:57:16.184Z,97431.94
2023-01-17T06:58:18.838Z,97439.03
2023-01-17T06:59:21.246Z,97439.84
2023-01-17T07:00:24.348Z,97439.63
2023-01-17T07:01:27.328Z,97439.41
2023-01-17T07:02:29.145Z,97444.59
2023-01-17T07:03:31.801Z,97429.94
2023-01-17T07:04:34.706Z,97433.94
2023-01-17T07:05:37.476Z,97438.69
2023-01-17T07:06:39.119Z,97436.56
2023-01-17T07:07:41.847Z,97438.84
2023-01-17T07:08:44.533Z,97443.41
2023-01-17T07:09:46.229Z,97436.94
2023-01-17T07:10:49.552Z,97437.53
2023-01-17T07:11:51.877Z,97446.88
2023-01-17T07:13:00.877Z,97446.66
2023-01-17T07:14:02.572Z,97436.66
2023-01-17T07:15:06.042Z,97441.84
2023-01-17T07:16:08.369Z,97439.72
2023-01-17T07:17:11.235Z,97434.47
2023-01-17T07:18:14.690Z,97431.38
2023-01-17T07:19:17.360Z,97439.88
2023-01-17T07:20:19.213Z,97438.00
2023-01-17T07:21:22.673Z,97440.34
2023-01-17T07:22:25.372Z,97436.81
2023-01-17T07:23:28.610Z,97434.31
2023-01-17T07:24:32.839Z,97426.63
2023-01-17T07:25:34.549Z,97424.75
2023-01-17T07:26:38.005Z,97425.59
2023-01-17T07:27:39.742Z,97426.84
2023-01-17T07:28:43.852Z,97428.97
2023-01-17T07:29:45.679Z,97428.00
2023-01-17T07:30:48.460Z,97425.50
2023-01-17T07:31:50.190Z,97433.16
2023-01-17T07:32:54.048Z,97422.56
2023-01-17T07:33:56.699Z,97431.97
2023-01-17T07:34:58.393Z,97428.00
2023-01-17T07:36:04.921Z,97429.03
2023-01-17T07:37:08.033Z,97425.72
2023-01-17T07:38:14.353Z,97429.25
2023-01-17T07:39:17.256Z,97429.25
2023-01-17T07:40:20.068Z,97429.50
2023-01-17T07:41:23.049Z,97426.53
2023-01-17T07:42:24.772Z,97419.50
2023-01-17T07:43:27.531Z,97422.41
2023-01-17T07:44:30.555Z,97413.47
2023-01-17T07:45:33.235Z,97415.34
2023-01-17T07:46:35.013Z,97421.59
2023-01-17T07:47:37.724Z,97411.59
2023-01-17T07:48:40.370Z,97418.66
2023-01-17T07:49:42.179Z,97413.91
2023-01-17T07:50:45.044Z,97408.03
2023-01-17T07:51:46.765Z,97410.69
2023-01-17T07:52:50.608Z,97412.63
2023-01-17T07:53:52.456Z,97411.50
2023-01-17T07:54:55.189Z,97408.94
2023-01-17T07:56:01.707Z,97405.78
2023-01-17T07:57:03.967Z,97416.97
2023-01-17T07:58:06.699Z,97406.13
2023-01-17T07:59:09.418Z,97408.84
2023-01-17T08:00:13.507Z,97404.88
2023-01-17T08:01:16.990Z,97405.25
2023-01-17T08:02:20.983Z,97402.53
2023-01-17T08:03:23.747Z,97406.91
2023-01-17T08:04:26.226Z,97399.59
2023-01-17T08:05:30.650Z,97399.97
2023-01-17T08:06:32.367Z,97395.72
2023-01-17T08:07:35.284Z,97388.22
2023-01-17T08:08:37.017Z,97392.13
2023-01-17T08:09:39.703Z,97392.47
2023-01-17T08:10:41.451Z,97387.41
2023-01-17T08:11:44.160Z,97390.53
2023-01-17T08:12:46.828Z,97383.78
2023-01-17T08:13:50.034Z,97390.41
2023-01-17T08:14:52.766Z,97392.44
2023-01-17T08:15:56.910Z,97385.47
2023-01-17T08:17:04.321Z,97382.06
2023-01-17T08:18:07.034Z,97385.75
2023-01-17T08:19:08.780Z,97382.34
2023-01-17T08:20:12.193Z,97383.59
2023-01-17T08:21:16.806Z,97385.59
2023-01-17T08:22:18.576Z,97383.69
2023-01-17T08:23:21.265Z,97378.88
2023-01-17T08:24:23.019Z,97378.66
2023-01-17T08:25:26.343Z,97377.59
2023-01-17T08:26:28.106Z,97373.34
2023-01-17T08:27:30.784Z,97376.41
2023-01-17T08:28:32.492Z,97370.28
2023-01-17T08:29:35.195Z,97366.38
2023-01-17T08:30:37.985Z,97365.69
2023-01-17T08:31:42.086Z,97369.13
2023-01-17T08:32:43.794Z,97362.75
2023-01-17T08:33:46.614Z,97369.16
2023-01-17T08:34:48.367Z,97361.91
2023-01-17T08:35:54.447Z,97372.66
2023-01-17T08:36:57.556Z,97371.13
2023-01-17T08:38:05.096Z,97371.03
2023-01-17T08:39:07.834Z,97373.84
2023-01-17T08:40:11.639Z,97370.16
2023-01-17T08:41:14.362Z,97367.56
2023-01-17T08:42:16.079Z,97366.03
2023-01-17T08:43:18.830Z,97363.44
2023-01-17T08:44:21.750Z,97368.16
2023-01-17T08:45:25.088Z,97359.03
2023-01-17T08:46:26.986Z,97361.03
2023-01-17T08:47:31.043Z,97364.69
2023-01-17T08:48:33.744Z,97368.81
2023-01-17T08:49:36.530Z,97364.31
2023-01-17T08:50:39.516Z,97370.09
2023-01-17T08:51:41.399Z,97371.25
2023-01-17T08:52:44.056Z,97373.50
2023-01-17T08:53:46.780Z,97375.97
2023-01-17T08:54:48.466Z,97376.56
2023-01-17T08:55:58.624Z,97370.88
2023-01-17T08:57:00.452Z,97371.72
2023-01-17T08:58:03.109Z,97371.47
2023-01-17T08:59:04.915Z,97365.53
2023-01-17T09:00:08.828Z,97372.41
2023-01-17T09:01:12.107Z,97368.13
2023-01-17T09:02:15.528Z,97367.63
2023-01-17T09:03:19.597Z,97369.28
2023-01-17T09:04:22.291Z,97369.53
2023-01-17T09:05:25.159Z,97367.06
2023-01-17T09:06:27.016Z,97371.09
2023-01-17T09:07:29.821Z,97365.06
2023-01-17T09:08:32.785Z,97373.13
2023-01-17T09:09:34.485Z,97365.19
2023-01-17T09:10:37.241Z,97367.09
2023-01-17T09:11:39.029Z,97365.81
2023-01-17T09:12:41.680Z,97369.31
2023-01-17T09:13:44.852Z,97369.09
2023-01-17T09:14:47.490Z,97372.31
2023-01-17T09:15:50.118Z,97371.25
2023-01-17T09:16:52.839Z,97380.19
2023-01-17T09:17:56.717Z,97374.03
2023-01-17T09:19:00.963Z,97373.34
2023-01-17T09:20:03.932Z,97369.88
2023-01-17T09:21:16.928Z,97365.09
2023-01-17T09:22:19.641Z,97373.38
2023-01-17T09:23:23.035Z,97380.81
2023-01-17T09:24:24.871Z,97377.13
2023-01-17T09:25:27.515Z,97373.19
2023-01-17T09:26:29.989Z,97367.84
2023-01-17T09:27:32.761Z,97376.09
2023-01-17T09:28:40.820Z,97377.03
2023-01-17T09:29:43.954Z,97373.31
2023-01-17T09:30:45.705Z,97369.25
2023-01-17T09:31:48.511Z,97373.41
2023-01-17T09:32:56.177Z,97368.28
2023-01-17T09:34:00.274Z,97373.75
2023-01-17T09:35:03.162Z,97378.13
2023-01-17T09:36:06.308Z,97377.84
2023-01-17T09:37:08.000Z,97377.63
2023-01-17T09:38:10.937Z,97376.53
2023-01-17T09:39:15.008Z,97379.84
2023-01-17T09:40:21.700Z,97387.53
2023-01-17T09:41:27.935Z,97388.09
2023-01-17T09:42:35.688Z,97391.41
2023-01-17T09:43:41.019Z,97388.44
2023-01-17T09:44:45.182Z,97391.16
2023-01-17T09:45:47.827Z,97391.16
2023-01-17T09:46:51.925Z,97395.78
2023-01-17T09:47:55.839Z,97399.06
2023-01-17T09:49:04.919Z,97397.44
2023-01-17T09:50:18.411Z,97398.16
2023-01-17T09:51:23.065Z,97394.03
2023-01-17T09:52:25.792Z,97407.34
2023-01-17T09:53:29.566Z,97395.03
2023-01-17T09:54:35.551Z,97404.53
2023-01-17T09:55:42.916Z,97413.16
2023-01-17T09:56:50.670Z,97410.34
2023-01-17T09:58:00.421Z,97407.91
2023-01-17T09:59:20.464Z,97408.03
2023-01-17T10:00:33.955Z,97412.41
2023-01-17T10:01:41.093Z,97408.38
2023-01-17T10:02:59.656Z,97403.84
2023-01-17T10:04:18.213Z,97418.13
2023-01-17T10:05:33.854Z,97411.88
2023-01-17T10:06:44.526Z,97413.75
2023-01-17T10:08:04.376Z,97406.75
2023-01-17T10:09:18.325Z,97403.88
2023-01-17T10:10:29.091Z,97406.69
2023-01-17T10:11:38.825Z,97414.03
2023-01-17T10:12:48.114Z,97409.41
2023-01-17T10:13:57.494Z,97403.97
2023-01-17T10:15:36.579Z,97405.53
2023-01-17T10:16:44.615Z,97411.72
2023-01-17T10:17:54.198Z,97402.63
2023-01-17T10:19:10.730Z,97409.88
2023-01-17T10:20:28.438Z,97406.25
2023-01-17T10:21:38.172Z,97410.19
2023-01-17T10:22:54.948Z,97398.84
2023-01-17T10:24:16.639Z,97395.84
2023-01-17T10:25:42.953Z,97397.19
2023-01-17T10:26:46.723Z,97393.06
2023-01-17T10:27:53.433Z,97400.63
2023-01-17T10:29:01.972Z,97396.72
2023-01-17T10:30:16.495Z,97394.84
2023-01-17T10:31:23.284Z,97400.78
2023-01-17T10:32:26.672Z,97403.97
2023-01-17T10:33:31.044Z,97402.56
2023-01-17T10:34:38.460Z,97398.69
2023-01-17T10:35:49.632Z,97403.28
2023-01-17T10:36:57.504Z,97403.28
2023-01-17T10:38:00.966Z,97399.25
2023-01-17T10:39:08.075Z,97396.28
2023-01-17T10:40:17.420Z,97396.63
2023-01-17T10:41:25.713Z,97392.63
2023-01-17T10:42:32.921Z,97389.72
2023-01-17T10:43:44.268Z,97393.97
2023-01-17T10:44:51.743Z,97388.78
2023-01-17T10:45:56.240Z,97390.19
2023-01-17T10:47:01.321Z,97396.31
2023-01-17T10:48:11.840Z,97391.59
2023-01-17T10:49:17.140Z,97393.41
2023-01-17T10:50:22.928Z,97398.22
2023-01-17T10:51:43.024Z,97398.56
2023-01-17T10:52:52.790Z,97401.47
2023-01-17T10:54:03.428Z,97418.72
2023-01-17T10:55:17.729Z,97408.16
2023-01-17T10:56:22.033Z,97411.13
2023-01-17T10:57:25.483Z,97405.81
2023-01-17T10:58:28.164Z,97399.00
2023-01-17T10:59:32.193Z,97403.00
2023-01-17T11:00:43.852Z,97395.34
2023-01-17T11:01:46.931Z,97403.41
2023-01-17T11:02:50.888Z,97393.03
2023-01-17T11:03:55.409Z,97397.88
2023-01-17T11:04:58.985Z,97388.31
2023-01-17T11:06:18.737Z,97396.50
2023-01-17T11:07:23.684Z,97398.13
2023-01-17T11:08:26.476Z,97397.41
2023-01-17T11:09:39.035Z,97391.47
2023-01-17T11:10:44.694Z,97391.66
2023-01-17T11:11:49.428Z,97394.19
2023-01-17T11:12:52.148Z,97380.00
2023-01-17T11:13:55.273Z,97390.16
2023-01-17T11:15:04.961Z,97390.72
2023-01-17T11:16:11.009Z,97381.50
2023-01-17T11:17:14.629Z,97375.22
2023-01-17T11:18:18.844Z,97381.25
2023-01-17T11:19:27.619Z,97378.53
2023-01-17T11:20:33.032Z,97380.19
2023-01-17T11:21:38.457Z,97377.78
2023-01-17T11:22:41.172Z,97383.88
2023-01-17T11:23:45.796Z,97376.06
2023-01-17T11:24:49.729Z,97378.59
2023-01-17T11:25:55.121Z,97367.22
2023-01-17T11:26:58.133Z,97370.50
2023-01-17T11:28:01.851Z,97370.25
2023-01-17T11:29:27.623Z,97363.44
2023-01-17T11:30:29.672Z,97369.13
2023-01-17T11:31:32.439Z,97362.75
2023-01-17T11:32:34.561Z,97362.16
2023-01-17T11:33:47.835Z,97358.38
2023-01-17T11:35:06.088Z,97364.16
2023-01-17T11:36:16.876Z,97362.00
2023-01-17T11:37:22.817Z,97353.59
2023-01-17T11:38:25.984Z,97351.19
2023-01-17T11:39:27.747Z,97354.97
2023-01-17T11:40:32.463Z,97354.66
2023-01-17T11:41:37.205Z,97353.00
2023-01-17T11:42:40.076Z,97348.31
2023-01-17T11:43:50.651Z,97344.00
2023-01-17T11:44:55.008Z,97343.00
2023-01-17T11:46:06.813Z,97344.47
2023-01-17T11:47:14.444Z,97343.25
2023-01-17T11:48:18.403Z,97348.84
2023-01-17T11:49:25.568Z,97341.88
2023-01-17T11:50:27.565Z,97345.81
2023-01-17T11:51:31.402Z,97344.31
2023-01-17T11:52:37.477Z,97341.13
2023-01-17T11:53:40.955Z,97347.00
2023-01-17T11:54:46.935Z,97346.78
2023-01-17T11:55:56.853Z,97349.06
2023-01-17T11:57:00.706Z,97339.06
2023-01-17T11:58:02.387Z,97342.91
2023-01-17T11:59:18.601Z,97349.25
2023-01-17T12:00:25.939Z,97338.94
2023-01-17T12:01:34.984Z,97339.22
2023-01-17T12:03:06.894Z,97332.44
2023-01-17T12:04:26.138Z,97330.25
2023-01-17T12:05:34.885Z,97331.41
2023-01-17T12:06:56.860Z,97325.16
2023-01-17T12:08:11.044Z,97324.97
2023-01-17T12:09:22.971Z,97315.44
2023-01-17T12:10:30.470Z,97316.81
2023-01-17T12:11:39.369Z,97311.66
2023-01-17T12:13:06.413Z,97310.59
2023-01-17T12:14:15.554Z,97317.19
2023-01-17T12:15:25.689Z,97312.28
2023-01-17T12:16:39.476Z,97312.84
2023-01-17T12:18:00.216Z,97310.69
2023-01-17T12:19:22.026Z,97307.69
2023-01-17T12:20:29.012Z,97307.41
2023-01-17T12:21:39.565Z,97310.16
2023-01-17T12:22:55.919Z,97305.50
2023-01-17T12:24:13.174Z,97307.16
2023-01-17T12:25:25.692Z,97302.28
2023-01-17T12:26:36.200Z,97296.53
2023-01-17T12:27:43.814Z,97295.47
2023-01-17T12:29:01.160Z,97295.47
2023-01-17T12:30:19.609Z,97293.31
2023-01-17T12:31:28.393Z,97293.31
2023-01-17T12:32:49.773Z,97290.81
2023-01-17T12:33:55.016Z,97292.97
2023-01-17T12:35:01.764Z,97286.97
2023-01-17T12:36:09.020Z,97285.31
2023-01-17T12:37:20.317Z,97281.75
2023-01-17T12:38:32.886Z,97275.47
2023-01-17T12:39:41.431Z,97278.72
2023-01-17T12:40:49.474Z,97275.72
2023-01-17T12:41:59.123Z,97271.56
2023-01-17T12:43:07.144Z,97268.53
2023-01-17T12:44:12.679Z,97273.72
2023-01-17T12:45:20.197Z,97273.38
2023-01-17T12:46:28.332Z,97274.75
2023-01-17T12:47:37.978Z,97270.88
2023-01-17T12:48:42.064Z,97266.75
2023-01-17T12:49:48.759Z,97264.31
2023-01-17T12:50:53.777Z,97262.38
2023-01-17T12:52:00.267Z,97272.22
2023-01-17T12:53:07.607Z,97277.41
2023-01-17T12:54:13.953Z,97267.88
2023-01-17T12:55:23.498Z,97273.91
2023-01-17T12:56:29.709Z,97270.41
2023-01-17T12:57:34.191Z,97260.84